Lansford, North Dakota
Current Conditions -  °F | °C
As of 12:58 PM on Friday 24 Oct 2014 (Local Time) from KMIB Reporting Station
Clear Clear  
Wind Chill: 64°   Ceiling: Unl
Heat Index: 64°   Visibility: 10mi
Dew Point: 32°   Wind: 26mph
Humidity: 30%   Direction: 270°W
Pressure: 29.82"   Gusts: 38mph
Location:  48.63°N, 101.38°W
Report Text: KMIB 241758Z AUTO 27023G33KT 10SM CLR 18/00 A2982 RMK AO2 PK WND 27033/48 SLP104 51005
Loading
Personal Weather Stations






























Interactive Weather Map
Tropical Storm Tracking
New forecast layout! Learn more

10-Day Weather Forecast

Advertisements
Track Severe Weather on mobile